Nearby METAR Reports

 

KBML - Berlin, NH
Mise à jour: Tue, 19-Jun-2018 10:52pm EDT
clair
clair
 Wind from calm
Vent: calme
Température: 46°F , 8°C
Point de rosée: 46°F , 8°C
Humidité: 100%
Baromètre: 29.91 inHg , 1012.9 hPa
Clouds: clair
Visibility: 10 miles , 16 km
2018/06/20 02:52 KBML 200252Z AUTO 00000KT 10SM CLR 08/08 A2991 RMK AO2 SLP132 T00830078 51015
KCON - Concord, NH
Mise à jour: Tue, 19-Jun-2018 10:51pm EDT
clair
clair
 Wind from ONO
Vent: ONO 5 mph , 7 km/h
Température: 63°F , 17°C
Point de rosée: 48°F , 9°C
Humidité: 59%
Baromètre: 29.89 inHg , 1012.2 hPa
Clouds: clair
Visibility: 10 miles , 16 km
2018/06/20 02:51 KCON 200251Z AUTO 29004KT 10SM CLR 17/09 A2989 RMK AO2 SLP121 T01720094 51018
KAFN - Lebanon, NH
Mise à jour: Tue, 19-Jun-2018 10:52pm EDT
clair
clair
 Wind from calm
Vent: calme
Température: 57°F , 14°C
Point de rosée: 52°F , 11°C
Humidité: 82%
Baromètre: 29.93 inHg , 1013.5 hPa
Clouds: clair
Visibility: 10 miles , 16 km
2018/06/20 02:52 KAFN 200252Z AUTO 00000KT 10SM CLR 14/11 A2993 RMK AO2 SLP137 T01390111 53019
 
KMHT - Manchester, NH
Mise à jour: Tue, 19-Jun-2018 10:53pm EDT
Few Clouds
Few Clouds
 Wind from NNO
Vent: NNO 6 mph , 9 km/h
Température: 70°F , 21°C
Point de rosée: 48°F , 9°C
Humidité: 46%
Baromètre: 29.87 inHg , 1011.5 hPa
Clouds: Few Clouds
Visibility: 10 miles , 16 km
Cloud details: Few Clouds 20000 ft
2018/06/20 02:53 KMHT 200253Z 33005KT 10SM FEW200 21/09 A2987 RMK AO2 SLP124 T02060089 51021
KMWN - Mount Washington
Mise à jour: Tue, 19-Jun-2018 10:56pm EDT
Few Clouds
Few Clouds
 Wind from NO
Vent: NO 30 mph , 48 km/h, Rafale: 36 mph , 57 km/h
Température: 39°F , 4°C
Wind Chill: 27°F , -3°C
Point de rosée: 32°F , 0°C
Humidité: 75%
Clouds: Few Clouds
Visibility: 100 miles , 160 km
Cloud details: Few Clouds 20000 ft
2018/06/20 02:56 KMWN 200256Z 31026G31KT 100SM FEW200 04/M00 RMK
K25B - Portsmouth Harbor
Mise à jour: Wed, 31-Dec-1969 7:00pm EST
NOT Current
unable to load K25B data RC=404 Not Found
unable to load K25B data RC=404 Not Found
 
 
KDDH - Bennington, VT
Mise à jour: Tue, 19-Jun-2018 10:54pm EDT
clair
clair
 Wind from calm
Vent: calme
Température: 59°F , 15°C
Point de rosée: 55°F , 13°C
Humidité: 88%
Baromètre: 29.92 inHg , 1013.2 hPa
Clouds: clair
Visibility: 10 miles , 16 km
2018/06/20 02:54 KDDH 200254Z AUTO 00000KT 10SM CLR 15/13 A2992 RMK AO2 SLP129 T01500128 53014
K9B2 - Newport, VT
Mise à jour: Wed, 31-Dec-1969 7:00pm EST
NOT Current
unable to load K9B2 data RC=404 Not Found
unable to load K9B2 data RC=404 Not Found
 
K1V4 - St Johnsbury, VT
Mise à jour: Tue, 19-Jun-2018 10:54pm EDT

 
Température: 55°F , 13°C
Point de rosée: 54°F , 12°C
Humidité: 94%
Baromètre: 29.91 inHg , 1012.9 hPa
2018/06/20 02:54 K1V4 200254Z AUTO 13/12 A2991 RMK AO1 SLP122 T01330117 51015
 
KBGR - Bangor, ME
Mise à jour: Tue, 19-Jun-2018 10:53pm EDT
clair
clair
 Wind from ONO
Vent: ONO 8 mph , 13 km/h
Température: 64°F , 18°C
Point de rosée: 45°F , 7°C
Humidité: 49%
Baromètre: 29.82 inHg , 1009.8 hPa
Clouds: clair
Visibility: 10 miles , 16 km
2018/06/20 02:53 KBGR 200253Z 30007KT 10SM CLR 18/07 A2982 RMK AO2 SLP095 T01780067 51021
KBHB - Bar Harbor, ME
Mise à jour: Tue, 19-Jun-2018 10:56pm EDT
clair
clair
 Wind from ONO
Vent: ONO 3 mph , 6 km/h
Température: 63°F , 17°C
Point de rosée: 45°F , 7°C
Humidité: 52%
Baromètre: 29.81 inHg , 1009.5 hPa
Clouds: clair
Visibility: 10 miles , 16 km
2018/06/20 02:56 KBHB 200256Z AUTO 30003KT 10SM CLR 17/07 A2981 RMK AO2 SLP099 T01720072 51021 $
74389 - Gray, ME
Mise à jour: Wed, 31-Dec-1969 7:00pm EST
NOT Current
74389 not loaded
74389 not loaded
 
 
KGNR - Greenville,ME
Mise à jour: Tue, 19-Jun-2018 10:56pm EDT

 Wind from NNO
Vent: NNO 10 mph , 17 km/h
Température: 57°F , 14°C
Point de rosée: 41°F , 5°C
Humidité: 55%
Baromètre: 29.83 inHg , 1010.2 hPa
2018/06/20 02:56 KGNR 200256Z AUTO 33009KT 14/05 A2983 RMK AO1 SLP102 T01440050 51017
KOLD - Old Town, ME
Mise à jour: Wed, 31-Dec-1969 7:00pm EST
NOT Current
unable to load KOLD data RC=404 Not Found
unable to load KOLD data RC=404 Not Found
 
KRUM - Rumford, ME
Mise à jour: Wed, 31-Dec-1969 7:00pm EST
NOT Current
unable to load KRUM data RC=404 Not Found
unable to load KRUM data RC=404 Not Found
 










Contact Us

© 2018, johnsnhweather | Weather-Display (10.37S-(b69)) | Valable XHTML 1.0 | Valable CSS

This website is neither affiliated with nor endorsed by the National Weather Service, the town of Pittsburg or any other government agency.
The weather data contained herein is offered without any warranties expressed or implied, and is meant to supplement NOAA weather forecasts and information. Never base important decisions that could result in harm to people or property on this weather information.